Aviation Digital Data Service (ADDS)

Output produced by METARs form (2129 UTC 25 May 2015)
found at http://aviationweather.gov/adds/metars/
 
KPOU 251914Z 2519/2618 16008G18KT P6SM SCT080 
     TEMPO 2519/2522 19008KT BKN080 
     FM260000 19005KT P6SM SCT100 BKN150 
     FM261200 22007KT P6SM SCT080 BKN150